sensor_id;sensor_type;location;lat;lon;timestamp;pressure;altitude;pressure_sealevel;temperature;humidity
68329;BME280;55182;56.864;60.554;2024-03-25T00:02:09;75053.84;;;-143.60;89.19
68329;BME280;55182;56.864;60.554;2024-03-25T00:04:35;75053.84;;;-143.60;89.13
68329;BME280;55182;56.864;60.554;2024-03-25T00:07:01;75059.88;;;-143.60;89.07
68329;BME280;55182;56.864;60.554;2024-03-25T00:09:26;75061.88;;;-143.60;88.88
68329;BME280;55182;56.864;60.554;2024-03-25T00:11:52;75063.88;;;-143.60;89.35
68329;BME280;55182;56.864;60.554;2024-03-25T00:14:17;75067.91;;;-143.60;88.96
68329;BME280;55182;56.864;60.554;2024-03-25T00:16:43;75065.88;;;-143.60;88.83
68329;BME280;55182;56.864;60.554;2024-03-25T00:19:08;75063.88;;;-143.60;88.78
68329;BME280;55182;56.864;60.554;2024-03-25T00:21:33;75065.88;;;-143.60;88.84
68329;BME280;55182;56.864;60.554;2024-03-25T00:23:59;75069.91;;;-143.60;88.51
68329;BME280;55182;56.864;60.554;2024-03-25T00:26:24;75065.88;;;-143.60;88.61
68329;BME280;55182;56.864;60.554;2024-03-25T00:28:50;75073.94;;;-143.60;88.71
68329;BME280;55182;56.864;60.554;2024-03-25T00:31:15;75081.97;;;-143.60;88.50
68329;BME280;55182;56.864;60.554;2024-03-25T00:33:41;75083.97;;;-143.60;88.48
68329;BME280;55182;56.864;60.554;2024-03-25T00:36:06;75079.94;;;-143.60;88.43
68329;BME280;55182;56.864;60.554;2024-03-25T00:38:32;75083.97;;;-143.60;88.47
68329;BME280;55182;56.864;60.554;2024-03-25T00:40:57;75088.00;;;-143.60;88.68
68329;BME280;55182;56.864;60.554;2024-03-25T00:43:23;75092.00;;;-143.60;88.76
68329;BME280;55182;56.864;60.554;2024-03-25T00:45:48;75098.03;;;-143.60;88.74
68329;BME280;55182;56.864;60.554;2024-03-25T00:48:14;75102.06;;;-143.60;88.96
68329;BME280;55182;56.864;60.554;2024-03-25T00:50:39;75104.06;;;-143.60;89.00
68329;BME280;55182;56.864;60.554;2024-03-25T00:53:05;75110.09;;;-143.60;88.97
68329;BME280;55182;56.864;60.554;2024-03-25T00:55:30;75122.13;;;-143.60;88.77
68329;BME280;55182;56.864;60.554;2024-03-25T00:57:56;75120.13;;;-143.60;88.74
68329;BME280;55182;56.864;60.554;2024-03-25T01:00:21;75126.16;;;-143.60;88.84
68329;BME280;55182;56.864;60.554;2024-03-25T01:02:47;75126.16;;;-143.60;88.49
68329;BME280;55182;56.864;60.554;2024-03-25T01:05:12;75136.19;;;-143.60;88.70
68329;BME280;55182;56.864;60.554;2024-03-25T01:07:38;75138.22;;;-143.60;88.30
68329;BME280;55182;56.864;60.554;2024-03-25T01:10:03;75140.22;;;-143.60;88.12
68329;BME280;55182;56.864;60.554;2024-03-25T01:12:29;75138.22;;;-143.60;87.92
68329;BME280;55182;56.864;60.554;2024-03-25T01:14:54;75142.22;;;-143.60;88.28
68329;BME280;55182;56.864;60.554;2024-03-25T01:17:20;75148.25;;;-143.60;87.94
68329;BME280;55182;56.864;60.554;2024-03-25T01:19:45;75150.25;;;-143.60;87.67
68329;BME280;55182;56.864;60.554;2024-03-25T01:22:11;75150.25;;;-143.60;87.58
68329;BME280;55182;56.864;60.554;2024-03-25T01:24:36;75156.28;;;-143.60;87.39
68329;BME280;55182;56.864;60.554;2024-03-25T01:27:02;75158.31;;;-143.60;87.32
68329;BME280;55182;56.864;60.554;2024-03-25T01:29:27;75154.28;;;-143.60;87.20
68329;BME280;55182;56.864;60.554;2024-03-25T01:31:53;75150.25;;;-143.60;87.09
68329;BME280;55182;56.864;60.554;2024-03-25T01:34:18;75160.31;;;-143.60;87.19
68329;BME280;55182;56.864;60.554;2024-03-25T01:36:44;75162.31;;;-143.60;87.32
68329;BME280;55182;56.864;60.554;2024-03-25T01:39:09;75162.31;;;-143.60;87.45
68329;BME280;55182;56.864;60.554;2024-03-25T01:41:35;75174.38;;;-143.60;87.29
68329;BME280;55182;56.864;60.554;2024-03-25T01:44:00;75172.38;;;-143.60;87.04
68329;BME280;55182;56.864;60.554;2024-03-25T01:46:26;75178.41;;;-143.60;87.06
68329;BME280;55182;56.864;60.554;2024-03-25T01:48:51;75178.41;;;-143.60;87.12
68329;BME280;55182;56.864;60.554;2024-03-25T01:51:17;75186.44;;;-143.60;87.09
68329;BME280;55182;56.864;60.554;2024-03-25T01:53:43;75180.41;;;-143.60;86.69
68329;BME280;55182;56.864;60.554;2024-03-25T01:56:10;75186.44;;;-143.60;86.68
68329;BME280;55182;56.864;60.554;2024-03-25T01:58:37;75188.44;;;-143.60;86.68
68329;BME280;55182;56.864;60.554;2024-03-25T02:01:03;75192.47;;;-143.60;86.57
68329;BME280;55182;56.864;60.554;2024-03-25T02:03:29;75194.47;;;-143.60;86.74
68329;BME280;55182;56.864;60.554;2024-03-25T02:05:59;75196.47;;;-143.60;86.57
68329;BME280;55182;56.864;60.554;2024-03-25T02:08:26;75204.50;;;-143.60;86.58
68329;BME280;55182;56.864;60.554;2024-03-25T02:10:52;75202.50;;;-143.60;86.47
68329;BME280;55182;56.864;60.554;2024-03-25T02:13:18;75210.53;;;-143.60;86.59
68329;BME280;55182;56.864;60.554;2024-03-25T02:15:44;75202.50;;;-143.60;86.55
68329;BME280;55182;56.864;60.554;2024-03-25T02:18:09;75198.47;;;-143.60;86.51
68329;BME280;55182;56.864;60.554;2024-03-25T02:20:35;75204.50;;;-143.60;86.57
68329;BME280;55182;56.864;60.554;2024-03-25T02:23:00;75204.50;;;-143.60;86.46
68329;BME280;55182;56.864;60.554;2024-03-25T02:25:26;75206.53;;;-143.60;86.13
68329;BME280;55182;56.864;60.554;2024-03-25T02:27:51;75202.50;;;-143.60;86.26
68329;BME280;55182;56.864;60.554;2024-03-25T02:30:17;75200.50;;;-143.60;86.40
68329;BME280;55182;56.864;60.554;2024-03-25T02:32:42;75210.53;;;-143.60;86.05
68329;BME280;55182;56.864;60.554;2024-03-25T02:35:12;75204.50;;;-143.60;85.78
68329;BME280;55182;56.864;60.554;2024-03-25T02:37:39;75210.53;;;-143.60;85.91
68329;BME280;55182;56.864;60.554;2024-03-25T02:40:05;75204.50;;;-143.60;86.15
68329;BME280;55182;56.864;60.554;2024-03-25T02:42:31;75200.50;;;-143.60;86.09
68329;BME280;55182;56.864;60.554;2024-03-25T02:44:57;75202.50;;;-143.60;85.63
68329;BME280;55182;56.864;60.554;2024-03-25T02:47:22;75204.50;;;-143.60;85.86
68329;BME280;55182;56.864;60.554;2024-03-25T02:49:48;75206.53;;;-143.60;85.80
68329;BME280;55182;56.864;60.554;2024-03-25T02:52:13;75208.53;;;-143.60;85.83
68329;BME280;55182;56.864;60.554;2024-03-25T02:54:39;75206.53;;;-143.60;86.28
68329;BME280;55182;56.864;60.554;2024-03-25T02:57:04;75208.53;;;-143.60;85.91
68329;BME280;55182;56.864;60.554;2024-03-25T02:59:30;75206.53;;;-143.60;85.64
68329;BME280;55182;56.864;60.554;2024-03-25T03:01:55;75206.53;;;-143.60;85.22
68329;BME280;55182;56.864;60.554;2024-03-25T03:04:21;75202.50;;;-143.60;85.37
68329;BME280;55182;56.864;60.554;2024-03-25T03:06:46;75196.47;;;-143.60;85.08
68329;BME280;55182;56.864;60.554;2024-03-25T03:09:12;75188.44;;;-143.60;84.85
68329;BME280;55182;56.864;60.554;2024-03-25T03:11:37;75192.47;;;-143.60;84.86
68329;BME280;55182;56.864;60.554;2024-03-25T03:14:02;75190.44;;;-143.60;84.45
68329;BME280;55182;56.864;60.554;2024-03-25T03:16:28;75180.41;;;-143.60;84.11
68329;BME280;55182;56.864;60.554;2024-03-25T03:18:53;75178.41;;;-143.60;83.92
68329;BME280;55182;56.864;60.554;2024-03-25T03:21:19;75174.38;;;-143.60;83.72
68329;BME280;55182;56.864;60.554;2024-03-25T03:23:44;75178.41;;;-143.60;83.58
68329;BME280;55182;56.864;60.554;2024-03-25T03:26:10;75184.41;;;-143.60;83.82
68329;BME280;55182;56.864;60.554;2024-03-25T03:28:35;75182.41;;;-143.60;83.74
68329;BME280;55182;56.864;60.554;2024-03-25T03:31:01;75190.44;;;-143.60;83.54
68329;BME280;55182;56.864;60.554;2024-03-25T03:33:26;75194.47;;;-143.60;84.31
68329;BME280;55182;56.864;60.554;2024-03-25T03:35:51;75188.44;;;-143.60;83.90
68329;BME280;55182;56.864;60.554;2024-03-25T03:38:17;75190.44;;;-143.60;83.49
68329;BME280;55182;56.864;60.554;2024-03-25T03:40:55;75190.44;;;-143.60;83.64
68329;BME280;55182;56.864;60.554;2024-03-25T03:43:20;75196.47;;;-143.60;83.41
68329;BME280;55182;56.864;60.554;2024-03-25T03:45:46;75198.47;;;-143.60;83.32
68329;BME280;55182;56.864;60.554;2024-03-25T03:48:11;75186.44;;;-143.60;83.34
68329;BME280;55182;56.864;60.554;2024-03-25T03:50:37;75182.41;;;-143.60;83.19
68329;BME280;55182;56.864;60.554;2024-03-25T03:53:02;75172.38;;;-143.60;82.63
68329;BME280;55182;56.864;60.554;2024-03-25T03:55:28;75170.34;;;-143.60;82.55
68329;BME280;55182;56.864;60.554;2024-03-25T03:57:53;75174.38;;;-143.60;82.49
68329;BME280;55182;56.864;60.554;2024-03-25T04:00:19;75150.25;;;-143.60;81.88
68329;BME280;55182;56.864;60.554;2024-03-25T04:02:44;75150.25;;;-143.60;81.72
68329;BME280;55182;56.864;60.554;2024-03-25T04:05:10;75146.25;;;-143.60;81.44
68329;BME280;55182;56.864;60.554;2024-03-25T04:07:35;75142.22;;;-143.60;81.25
68329;BME280;55182;56.864;60.554;2024-03-25T04:10:00;75136.19;;;-143.60;80.83
68329;BME280;55182;56.864;60.554;2024-03-25T04:12:26;75134.19;;;-143.60;80.70
68329;BME280;55182;56.864;60.554;2024-03-25T04:14:51;75130.19;;;-143.60;80.37
68329;BME280;55182;56.864;60.554;2024-03-25T04:17:17;75132.19;;;-143.60;80.25
68329;BME280;55182;56.864;60.554;2024-03-25T04:19:42;75130.19;;;-143.60;80.33
68329;BME280;55182;56.864;60.554;2024-03-25T04:22:07;75138.22;;;-143.60;79.99
68329;BME280;55182;56.864;60.554;2024-03-25T04:24:33;75140.22;;;-143.60;80.37
68329;BME280;55182;56.864;60.554;2024-03-25T04:26:58;75148.25;;;-143.60;80.34
68329;BME280;55182;56.864;60.554;2024-03-25T04:29:24;75142.22;;;-143.60;80.35
68329;BME280;55182;56.864;60.554;2024-03-25T04:31:49;75144.25;;;-143.60;80.28
68329;BME280;55182;56.864;60.554;2024-03-25T04:34:15;75146.25;;;-143.60;80.09
68329;BME280;55182;56.864;60.554;2024-03-25T04:36:40;75142.22;;;-143.60;80.02
68329;BME280;55182;56.864;60.554;2024-03-25T04:39:06;75134.19;;;-143.60;80.12
68329;BME280;55182;56.864;60.554;2024-03-25T04:41:31;75140.22;;;-143.60;79.81
68329;BME280;55182;56.864;60.554;2024-03-25T04:43:57;75138.22;;;-143.60;79.61
68329;BME280;55182;56.864;60.554;2024-03-25T04:46:22;75144.25;;;-143.60;79.51
68329;BME280;55182;56.864;60.554;2024-03-25T04:48:48;75136.19;;;-143.60;79.46
68329;BME280;55182;56.864;60.554;2024-03-25T04:51:14;75138.22;;;-143.60;79.61
68329;BME280;55182;56.864;60.554;2024-03-25T04:53:39;75144.25;;;-143.60;79.66
68329;BME280;55182;56.864;60.554;2024-03-25T04:56:05;75134.19;;;-143.60;79.42
68329;BME280;55182;56.864;60.554;2024-03-25T04:58:31;75130.19;;;-143.60;79.32
68329;BME280;55182;56.864;60.554;2024-03-25T05:00:56;75122.13;;;-143.60;79.35
68329;BME280;55182;56.864;60.554;2024-03-25T05:03:22;75122.13;;;-143.60;78.44
68329;BME280;55182;56.864;60.554;2024-03-25T05:05:47;75124.16;;;-143.60;78.54
68329;BME280;55182;56.864;60.554;2024-03-25T05:08:13;75120.13;;;-143.60;78.50
68329;BME280;55182;56.864;60.554;2024-03-25T05:10:38;75108.06;;;-143.60;77.79
68329;BME280;55182;56.864;60.554;2024-03-25T05:13:04;75096.03;;;-143.60;77.73
68329;BME280;55182;56.864;60.554;2024-03-25T05:15:29;75081.97;;;-143.60;77.15
68329;BME280;55182;56.864;60.554;2024-03-25T05:17:55;75079.94;;;-143.60;76.62
68329;BME280;55182;56.864;60.554;2024-03-25T05:20:21;75085.97;;;-143.60;76.57
68329;BME280;55182;56.864;60.554;2024-03-25T05:22:47;75075.94;;;-143.60;76.60
68329;BME280;55182;56.864;60.554;2024-03-25T05:25:13;75075.94;;;-143.60;76.09
68329;BME280;55182;56.864;60.554;2024-03-25T05:27:38;75073.94;;;-143.60;75.96
68329;BME280;55182;56.864;60.554;2024-03-25T05:30:04;75081.97;;;-143.60;75.78
68329;BME280;55182;56.864;60.554;2024-03-25T05:32:30;75088.00;;;-143.60;75.53
68329;BME280;55182;56.864;60.554;2024-03-25T05:34:55;75092.00;;;-143.60;75.59
68329;BME280;55182;56.864;60.554;2024-03-25T05:37:20;75090.00;;;-143.60;75.73
68329;BME280;55182;56.864;60.554;2024-03-25T05:39:46;75081.97;;;-143.60;76.25
68329;BME280;55182;56.864;60.554;2024-03-25T05:42:11;75071.91;;;-143.60;75.10
68329;BME280;55182;56.864;60.554;2024-03-25T05:44:37;75063.88;;;-143.60;74.95
68329;BME280;55182;56.864;60.554;2024-03-25T05:47:03;75051.81;;;-143.60;75.10
68329;BME280;55182;56.864;60.554;2024-03-25T05:49:28;75053.84;;;-143.60;73.35
68329;BME280;55182;56.864;60.554;2024-03-25T05:51:54;75057.84;;;-143.60;72.74
68329;BME280;55182;56.864;60.554;2024-03-25T05:54:19;75053.84;;;-143.60;72.52
68329;BME280;55182;56.864;60.554;2024-03-25T05:56:45;75053.84;;;-143.60;71.81
68329;BME280;55182;56.864;60.554;2024-03-25T05:59:10;75057.84;;;-143.60;71.42
68329;BME280;55182;56.864;60.554;2024-03-25T06:01:35;75049.81;;;-143.60;71.37
68329;BME280;55182;56.864;60.554;2024-03-25T06:04:01;75045.81;;;-143.60;70.82
68329;BME280;55182;56.864;60.554;2024-03-25T06:06:26;75037.75;;;-143.60;70.67
68329;BME280;55182;56.864;60.554;2024-03-25T06:08:52;75035.75;;;-143.60;70.32
68329;BME280;55182;56.864;60.554;2024-03-25T06:11:17;75053.84;;;-143.60;70.30
68329;BME280;55182;56.864;60.554;2024-03-25T06:13:46;75069.91;;;-143.60;71.02
68329;BME280;55182;56.864;60.554;2024-03-25T06:16:12;75073.94;;;-143.60;70.51
68329;BME280;55182;56.864;60.554;2024-03-25T06:18:37;75079.94;;;-143.60;70.14
68329;BME280;55182;56.864;60.554;2024-03-25T06:21:03;75075.94;;;-143.60;69.71
68329;BME280;55182;56.864;60.554;2024-03-25T06:23:28;75065.88;;;-143.60;69.39
68329;BME280;55182;56.864;60.554;2024-03-25T06:25:54;75057.84;;;-143.60;70.20
68329;BME280;55182;56.864;60.554;2024-03-25T06:28:20;75047.81;;;-143.60;69.42
68329;BME280;55182;56.864;60.554;2024-03-25T06:30:46;75053.84;;;-143.60;69.27
68329;BME280;55182;56.864;60.554;2024-03-25T06:33:12;75051.81;;;-143.60;69.52
68329;BME280;55182;56.864;60.554;2024-03-25T06:35:37;75045.81;;;-143.60;69.73
68329;BME280;55182;56.864;60.554;2024-03-25T06:38:03;75039.78;;;-143.60;69.13
68329;BME280;55182;56.864;60.554;2024-03-25T06:40:29;75025.72;;;-143.60;68.70
68329;BME280;55182;56.864;60.554;2024-03-25T06:42:54;75017.69;;;-143.60;68.41
68329;BME280;55182;56.864;60.554;2024-03-25T06:45:20;75005.63;;;-143.60;68.52
68329;BME280;55182;56.864;60.554;2024-03-25T06:47:45;74999.59;;;-143.60;67.91
68329;BME280;55182;56.864;60.554;2024-03-25T06:50:13;74997.59;;;-143.60;67.96
68329;BME280;55182;56.864;60.554;2024-03-25T06:52:39;74985.53;;;-143.60;67.74
68329;BME280;55182;56.864;60.554;2024-03-25T06:55:04;74985.53;;;-143.60;67.63
68329;BME280;55182;56.864;60.554;2024-03-25T06:57:30;74973.47;;;-143.60;67.31
68329;BME280;55182;56.864;60.554;2024-03-25T06:59:55;74961.44;;;-143.60;66.55
68329;BME280;55182;56.864;60.554;2024-03-25T07:02:20;74965.44;;;-143.60;67.00
68329;BME280;55182;56.864;60.554;2024-03-25T07:04:46;74961.44;;;-143.60;67.67
68329;BME280;55182;56.864;60.554;2024-03-25T07:07:12;74963.44;;;-143.60;66.94
68329;BME280;55182;56.864;60.554;2024-03-25T07:09:37;74969.47;;;-143.60;66.54
68329;BME280;55182;56.864;60.554;2024-03-25T07:12:03;74973.47;;;-143.60;67.57
68329;BME280;55182;56.864;60.554;2024-03-25T07:14:29;74983.53;;;-143.60;66.77
68329;BME280;55182;56.864;60.554;2024-03-25T07:16:55;74985.53;;;-143.60;67.64
68329;BME280;55182;56.864;60.554;2024-03-25T07:19:20;74985.53;;;-143.60;67.17
68329;BME280;55182;56.864;60.554;2024-03-25T07:21:46;75013.66;;;-143.60;67.31
68329;BME280;55182;56.864;60.554;2024-03-25T07:24:12;75023.69;;;-143.60;67.63
68329;BME280;55182;56.864;60.554;2024-03-25T07:26:37;75031.75;;;-143.60;67.32
68329;BME280;55182;56.864;60.554;2024-03-25T07:29:03;75023.69;;;-143.60;67.62
68329;BME280;55182;56.864;60.554;2024-03-25T07:31:28;75015.66;;;-143.60;67.33
68329;BME280;55182;56.864;60.554;2024-03-25T07:33:54;75013.66;;;-143.60;67.20
68329;BME280;55182;56.864;60.554;2024-03-25T07:36:19;75009.63;;;-143.60;67.42
68329;BME280;55182;56.864;60.554;2024-03-25T07:38:45;75021.69;;;-143.60;66.93
68329;BME280;55182;56.864;60.554;2024-03-25T07:41:10;75039.78;;;-143.60;67.73
68329;BME280;55182;56.864;60.554;2024-03-25T07:43:36;75057.84;;;-143.60;68.05
68329;BME280;55182;56.864;60.554;2024-03-25T07:46:01;75065.88;;;-143.60;68.53
68329;BME280;55182;56.864;60.554;2024-03-25T07:48:27;75073.94;;;-143.60;69.17
68329;BME280;55182;56.864;60.554;2024-03-25T07:50:52;75081.97;;;-143.60;69.39
68329;BME280;55182;56.864;60.554;2024-03-25T07:53:18;75090.00;;;-143.60;69.67
68329;BME280;55182;56.864;60.554;2024-03-25T07:55:43;75094.00;;;-143.60;69.80
68329;BME280;55182;56.864;60.554;2024-03-25T07:58:09;75098.03;;;-143.60;70.06
68329;BME280;55182;56.864;60.554;2024-03-25T08:00:34;75104.06;;;-143.60;69.98
68329;BME280;55182;56.864;60.554;2024-03-25T08:03:00;75104.06;;;-143.60;70.00
68329;BME280;55182;56.864;60.554;2024-03-25T08:05:26;75110.09;;;-143.60;69.85
68329;BME280;55182;56.864;60.554;2024-03-25T08:07:52;75106.06;;;-143.60;69.97
68329;BME280;55182;56.864;60.554;2024-03-25T08:10:17;75090.00;;;-143.60;69.88
68329;BME280;55182;56.864;60.554;2024-03-25T08:12:43;75065.88;;;-143.60;69.64
68329;BME280;55182;56.864;60.554;2024-03-25T08:15:08;75049.81;;;-143.60;69.02
68329;BME280;55182;56.864;60.554;2024-03-25T08:17:34;75043.78;;;-143.60;68.47
68329;BME280;55182;56.864;60.554;2024-03-25T08:19:59;75019.69;;;-143.60;68.25
68329;BME280;55182;56.864;60.554;2024-03-25T08:22:24;75009.63;;;-143.60;68.34
68329;BME280;55182;56.864;60.554;2024-03-25T08:24:50;74993.56;;;-143.60;68.96
68329;BME280;55182;56.864;60.554;2024-03-25T08:27:15;74975.50;;;-143.60;67.53
68329;BME280;55182;56.864;60.554;2024-03-25T08:29:41;74957.41;;;-143.60;66.94
68329;BME280;55182;56.864;60.554;2024-03-25T08:32:06;74953.41;;;-143.60;66.75
68329;BME280;55182;56.864;60.554;2024-03-25T08:34:32;74961.44;;;-143.60;66.82
68329;BME280;55182;56.864;60.554;2024-03-25T08:36:57;74961.44;;;-143.60;66.97
68329;BME280;55182;56.864;60.554;2024-03-25T08:39:22;74969.47;;;-143.60;66.44
68329;BME280;55182;56.864;60.554;2024-03-25T08:41:48;74989.56;;;-143.60;67.10
68329;BME280;55182;56.864;60.554;2024-03-25T08:44:13;74985.53;;;-143.60;67.86
68329;BME280;55182;56.864;60.554;2024-03-25T08:46:39;74971.47;;;-143.60;67.44
68329;BME280;55182;56.864;60.554;2024-03-25T08:49:04;74969.47;;;-143.60;66.52
68329;BME280;55182;56.864;60.554;2024-03-25T08:51:30;74957.41;;;-143.60;66.89
68329;BME280;55182;56.864;60.554;2024-03-25T08:53:55;74949.38;;;-143.60;66.18
68329;BME280;55182;56.864;60.554;2024-03-25T08:56:21;74949.38;;;-143.60;66.12
68329;BME280;55182;56.864;60.554;2024-03-25T08:58:46;74917.22;;;-143.60;66.31
68329;BME280;55182;56.864;60.554;2024-03-25T09:01:12;74897.16;;;-143.60;66.15
68329;BME280;55182;56.864;60.554;2024-03-25T09:03:37;74865.00;;;-143.60;64.94
68329;BME280;55182;56.864;60.554;2024-03-25T09:06:03;74842.91;;;-143.60;64.30
68329;BME280;55182;56.864;60.554;2024-03-25T09:08:28;74818.78;;;-143.60;64.14
68329;BME280;55182;56.864;60.554;2024-03-25T09:10:54;74786.66;;;-143.60;63.49
68329;BME280;55182;56.864;60.554;2024-03-25T09:13:19;74784.66;;;-143.60;63.40
68329;BME280;55182;56.864;60.554;2024-03-25T09:15:44;74768.56;;;-143.60;62.00
68329;BME280;55182;56.864;60.554;2024-03-25T09:18:10;74760.53;;;-143.60;61.51
68329;BME280;55182;56.864;60.554;2024-03-25T09:20:36;74758.53;;;-143.60;61.85
68329;BME280;55182;56.864;60.554;2024-03-25T09:23:01;74748.50;;;-143.60;61.26
68329;BME280;55182;56.864;60.554;2024-03-25T09:25:27;74754.50;;;-143.60;61.11
68329;BME280;55182;56.864;60.554;2024-03-25T09:27:52;74762.56;;;-143.60;61.30
68329;BME280;55182;56.864;60.554;2024-03-25T09:30:17;74768.56;;;-143.60;61.77
68329;BME280;55182;56.864;60.554;2024-03-25T09:32:43;74770.59;;;-143.60;61.51
68329;BME280;55182;56.864;60.554;2024-03-25T09:35:09;74792.69;;;-143.60;61.40
68329;BME280;55182;56.864;60.554;2024-03-25T09:37:35;74792.69;;;-143.60;62.76
68329;BME280;55182;56.864;60.554;2024-03-25T09:40:00;74804.75;;;-143.60;62.32
68329;BME280;55182;56.864;60.554;2024-03-25T09:42:26;74810.75;;;-143.60;62.42
68329;BME280;55182;56.864;60.554;2024-03-25T09:44:53;74816.78;;;-143.60;62.46
68329;BME280;55182;56.864;60.554;2024-03-25T09:47:19;74808.75;;;-143.60;62.63
68329;BME280;55182;56.864;60.554;2024-03-25T09:49:44;74824.81;;;-143.60;62.55
68329;BME280;55182;56.864;60.554;2024-03-25T09:52:10;74838.88;;;-143.60;63.17
68329;BME280;55182;56.864;60.554;2024-03-25T09:54:36;74836.88;;;-143.60;63.60
68329;BME280;55182;56.864;60.554;2024-03-25T09:57:02;74828.84;;;-143.60;63.65
68329;BME280;55182;56.864;60.554;2024-03-25T09:59:27;74826.84;;;-143.60;63.51
68329;BME280;55182;56.864;60.554;2024-03-25T10:01:53;74820.81;;;-143.60;63.86
68329;BME280;55182;56.864;60.554;2024-03-25T10:04:19;74792.69;;;-143.60;63.68
68329;BME280;55182;56.864;60.554;2024-03-25T10:06:45;74756.53;;;-143.60;62.99
68329;BME280;55182;56.864;60.554;2024-03-25T10:09:10;74738.44;;;-143.60;62.19
68329;BME280;55182;56.864;60.554;2024-03-25T10:11:36;74732.41;;;-143.60;61.30
68329;BME280;55182;56.864;60.554;2024-03-25T10:14:01;74724.38;;;-143.60;61.03
68329;BME280;55182;56.864;60.554;2024-03-25T10:16:27;74712.34;;;-143.60;60.96
68329;BME280;55182;56.864;60.554;2024-03-25T10:18:53;74704.28;;;-143.60;60.92
68329;BME280;55182;56.864;60.554;2024-03-25T10:21:21;74688.22;;;-143.60;60.58
68329;BME280;55182;56.864;60.554;2024-03-25T10:23:48;74688.22;;;-143.60;60.46
68329;BME280;55182;56.864;60.554;2024-03-25T10:26:26;74684.22;;;-143.60;60.37
68329;BME280;55182;56.864;60.554;2024-03-25T10:29:05;74692.25;;;-143.60;60.77
68329;BME280;55182;56.864;60.554;2024-03-25T10:31:30;74712.34;;;-143.60;60.71
68329;BME280;55182;56.864;60.554;2024-03-25T10:33:56;74718.34;;;-143.60;60.75
68329;BME280;55182;56.864;60.554;2024-03-25T10:36:22;74726.41;;;-143.60;60.85
68329;BME280;55182;56.864;60.554;2024-03-25T10:38:48;74732.41;;;-143.60;60.82
68329;BME280;55182;56.864;60.554;2024-03-25T10:41:16;74744.47;;;-143.60;61.01
68329;BME280;55182;56.864;60.554;2024-03-25T10:43:42;74748.50;;;-143.60;61.58
68329;BME280;55182;56.864;60.554;2024-03-25T10:46:09;74764.56;;;-143.60;61.43
68329;BME280;55182;56.864;60.554;2024-03-25T10:48:35;74772.59;;;-143.60;61.94
68329;BME280;55182;56.864;60.554;2024-03-25T10:51:03;74788.66;;;-143.60;61.84
68329;BME280;55182;56.864;60.554;2024-03-25T10:53:28;74792.69;;;-143.60;62.23
68329;BME280;55182;56.864;60.554;2024-03-25T10:55:54;74802.72;;;-143.60;62.49
68329;BME280;55182;56.864;60.554;2024-03-25T10:58:23;74804.75;;;-143.60;62.88
68329;BME280;55182;56.864;60.554;2024-03-25T11:00:51;74816.78;;;-143.60;62.73
68329;BME280;55182;56.864;60.554;2024-03-25T11:03:17;74818.78;;;-143.60;62.78
68329;BME280;55182;56.864;60.554;2024-03-25T11:05:43;74820.81;;;-143.60;63.14
68329;BME280;55182;56.864;60.554;2024-03-25T11:08:12;74824.81;;;-143.60;63.26
68329;BME280;55182;56.864;60.554;2024-03-25T11:10:44;74828.84;;;-143.60;63.70
68329;BME280;55182;56.864;60.554;2024-03-25T11:13:10;74828.84;;;-143.60;63.70
68329;BME280;55182;56.864;60.554;2024-03-25T11:15:36;74830.84;;;-143.60;63.44
68329;BME280;55182;56.864;60.554;2024-03-25T11:18:01;74828.84;;;-143.60;63.75
68329;BME280;55182;56.864;60.554;2024-03-25T11:20:27;74828.84;;;-143.60;63.98
68329;BME280;55182;56.864;60.554;2024-03-25T11:22:52;74828.84;;;-143.60;63.74
68329;BME280;55182;56.864;60.554;2024-03-25T11:25:19;74822.81;;;-143.60;63.91
68329;BME280;55182;56.864;60.554;2024-03-25T11:27:45;74828.84;;;-143.60;63.97
68329;BME280;55182;56.864;60.554;2024-03-25T11:30:11;74832.88;;;-143.60;64.03
68329;BME280;55182;56.864;60.554;2024-03-25T11:35:09;74838.88;;;-143.60;64.29
68329;BME280;55182;56.864;60.554;2024-03-25T11:37:38;74836.88;;;-143.60;64.10
68329;BME280;55182;56.864;60.554;2024-03-25T11:40:03;74832.88;;;-143.60;64.86
68329;BME280;55182;56.864;60.554;2024-03-25T11:42:29;74832.88;;;-143.60;64.75
68329;BME280;55182;56.864;60.554;2024-03-25T11:44:55;74836.88;;;-143.60;64.80
68329;BME280;55182;56.864;60.554;2024-03-25T11:47:21;74830.84;;;-143.60;64.52
68329;BME280;55182;56.864;60.554;2024-03-25T11:49:46;74836.88;;;-143.60;64.71
68329;BME280;55182;56.864;60.554;2024-03-25T11:52:12;74840.91;;;-143.60;65.12
68329;BME280;55182;56.864;60.554;2024-03-25T11:54:38;74840.91;;;-143.60;65.54
68329;BME280;55182;56.864;60.554;2024-03-25T11:57:03;74844.91;;;-143.60;65.80
68329;BME280;55182;56.864;60.554;2024-03-25T11:59:29;74844.91;;;-143.60;66.37
68329;BME280;55182;56.864;60.554;2024-03-25T12:01:54;74842.91;;;-143.60;66.69
68329;BME280;55182;56.864;60.554;2024-03-25T12:04:20;74858.97;;;-143.60;66.83
68329;BME280;55182;56.864;60.554;2024-03-25T12:06:45;74863.00;;;-143.60;67.68
68329;BME280;55182;56.864;60.554;2024-03-25T12:09:11;74867.00;;;-143.60;67.66
68329;BME280;55182;56.864;60.554;2024-03-25T12:11:36;74869.03;;;-143.60;67.99
68329;BME280;55182;56.864;60.554;2024-03-25T12:14:02;74873.03;;;-143.60;68.43
68329;BME280;55182;56.864;60.554;2024-03-25T12:16:27;74881.06;;;-143.60;68.77
68329;BME280;55182;56.864;60.554;2024-03-25T12:18:53;74883.09;;;-143.60;69.11
68329;BME280;55182;56.864;60.554;2024-03-25T12:21:19;74885.09;;;-143.60;69.49
68329;BME280;55182;56.864;60.554;2024-03-25T12:23:44;74889.09;;;-143.60;70.03
68329;BME280;55182;56.864;60.554;2024-03-25T12:26:10;74891.13;;;-143.60;70.05